sensor_id;sensor_type;location;lat;lon;timestamp;P1;durP1;ratioP1;P2;durP2;ratioP2
4726;SDS011;2377;51.734;8.950;2023-05-02T00:01:23;7.13;;;5.90;;
4726;SDS011;2377;51.734;8.950;2023-05-02T00:03:50;11.57;;;5.83;;
4726;SDS011;2377;51.734;8.950;2023-05-02T00:06:17;7.80;;;6.20;;
4726;SDS011;2377;51.734;8.950;2023-05-02T00:08:44;7.90;;;6.30;;
4726;SDS011;2377;51.734;8.950;2023-05-02T00:11:11;7.37;;;5.83;;
4726;SDS011;2377;51.734;8.950;2023-05-02T00:13:38;7.60;;;6.40;;
4726;SDS011;2377;51.734;8.950;2023-05-02T00:16:06;10.83;;;7.17;;
4726;SDS011;2377;51.734;8.950;2023-05-02T00:18:33;9.43;;;6.13;;
4726;SDS011;2377;51.734;8.950;2023-05-02T00:21:00;7.63;;;6.37;;
4726;SDS011;2377;51.734;8.950;2023-05-02T00:23:27;9.53;;;7.50;;
4726;SDS011;2377;51.734;8.950;2023-05-02T00:25:54;12.17;;;7.87;;
4726;SDS011;2377;51.734;8.950;2023-05-02T00:28:21;10.40;;;8.70;;
4726;SDS011;2377;51.734;8.950;2023-05-02T00:30:48;9.80;;;7.90;;
4726;SDS011;2377;51.734;8.950;2023-05-02T00:33:16;10.57;;;8.93;;
4726;SDS011;2377;51.734;8.950;2023-05-02T00:35:43;12.53;;;9.00;;
4726;SDS011;2377;51.734;8.950;2023-05-02T00:38:10;13.83;;;10.40;;
4726;SDS011;2377;51.734;8.950;2023-05-02T00:40:43;10.70;;;8.87;;
4726;SDS011;2377;51.734;8.950;2023-05-02T00:43:11;13.73;;;9.87;;
4726;SDS011;2377;51.734;8.950;2023-05-02T00:45:39;18.20;;;10.87;;
4726;SDS011;2377;51.734;8.950;2023-05-02T00:48:08;12.87;;;9.87;;
4726;SDS011;2377;51.734;8.950;2023-05-02T00:50:39;11.83;;;9.27;;
4726;SDS011;2377;51.734;8.950;2023-05-02T00:53:07;12.80;;;11.10;;
4726;SDS011;2377;51.734;8.950;2023-05-02T00:55:35;10.23;;;8.70;;
4726;SDS011;2377;51.734;8.950;2023-05-02T00:58:04;12.63;;;9.80;;
4726;SDS011;2377;51.734;8.950;2023-05-02T01:00:39;9.97;;;8.20;;
4726;SDS011;2377;51.734;8.950;2023-05-02T01:03:31;15.20;;;11.30;;
4726;SDS011;2377;51.734;8.950;2023-05-02T01:06:14;13.73;;;9.23;;
4726;SDS011;2377;51.734;8.950;2023-05-02T01:09:01;13.00;;;11.03;;
4726;SDS011;2377;51.734;8.950;2023-05-02T01:11:47;13.83;;;11.83;;
4726;SDS011;2377;51.734;8.950;2023-05-02T01:14:27;10.90;;;9.67;;
4726;SDS011;2377;51.734;8.950;2023-05-02T01:16:57;12.33;;;10.70;;
4726;SDS011;2377;51.734;8.950;2023-05-02T01:19:33;14.93;;;11.50;;
4726;SDS011;2377;51.734;8.950;2023-05-02T01:22:05;12.30;;;10.90;;
4726;SDS011;2377;51.734;8.950;2023-05-02T01:24:36;11.07;;;9.37;;
4726;SDS011;2377;51.734;8.950;2023-05-02T01:27:21;12.80;;;10.87;;
4726;SDS011;2377;51.734;8.950;2023-05-02T01:30:01;12.60;;;9.77;;
4726;SDS011;2377;51.734;8.950;2023-05-02T01:32:31;14.00;;;10.07;;
4726;SDS011;2377;51.734;8.950;2023-05-02T01:35:02;12.53;;;11.03;;
4726;SDS011;2377;51.734;8.950;2023-05-02T01:37:32;13.00;;;11.60;;
4726;SDS011;2377;51.734;8.950;2023-05-02T01:40:01;12.20;;;10.63;;
4726;SDS011;2377;51.734;8.950;2023-05-02T01:42:32;11.60;;;10.10;;
4726;SDS011;2377;51.734;8.950;2023-05-02T01:45:03;11.80;;;10.60;;
4726;SDS011;2377;51.734;8.950;2023-05-02T01:47:34;13.17;;;11.33;;
4726;SDS011;2377;51.734;8.950;2023-05-02T01:50:04;12.17;;;9.13;;
4726;SDS011;2377;51.734;8.950;2023-05-02T01:52:34;14.93;;;13.33;;
4726;SDS011;2377;51.734;8.950;2023-05-02T01:55:03;14.40;;;12.90;;
4726;SDS011;2377;51.734;8.950;2023-05-02T01:57:35;14.90;;;13.10;;
4726;SDS011;2377;51.734;8.950;2023-05-02T02:00:08;16.17;;;12.20;;
4726;SDS011;2377;51.734;8.950;2023-05-02T02:02:37;15.93;;;13.33;;
4726;SDS011;2377;51.734;8.950;2023-05-02T02:05:07;16.10;;;13.57;;
4726;SDS011;2377;51.734;8.950;2023-05-02T02:07:38;16.20;;;12.70;;
4726;SDS011;2377;51.734;8.950;2023-05-02T02:10:05;17.10;;;12.87;;
4726;SDS011;2377;51.734;8.950;2023-05-02T02:12:34;16.70;;;14.90;;
4726;SDS011;2377;51.734;8.950;2023-05-02T02:15:11;14.40;;;12.37;;
4726;SDS011;2377;51.734;8.950;2023-05-02T02:17:45;17.00;;;14.20;;
4726;SDS011;2377;51.734;8.950;2023-05-02T02:20:20;19.87;;;13.77;;
4726;SDS011;2377;51.734;8.950;2023-05-02T02:22:47;16.70;;;13.10;;
4726;SDS011;2377;51.734;8.950;2023-05-02T02:25:16;15.77;;;13.47;;
4726;SDS011;2377;51.734;8.950;2023-05-02T02:27:43;20.50;;;16.70;;
4726;SDS011;2377;51.734;8.950;2023-05-02T02:30:14;19.73;;;15.33;;
4726;SDS011;2377;51.734;8.950;2023-05-02T02:32:41;25.17;;;17.27;;
4726;SDS011;2377;51.734;8.950;2023-05-02T02:35:08;30.83;;;19.63;;
4726;SDS011;2377;51.734;8.950;2023-05-02T02:37:36;28.80;;;18.60;;
4726;SDS011;2377;51.734;8.950;2023-05-02T02:40:11;31.40;;;20.07;;
4726;SDS011;2377;51.734;8.950;2023-05-02T02:42:49;26.63;;;20.07;;
4726;SDS011;2377;51.734;8.950;2023-05-02T02:45:29;24.53;;;18.97;;
4726;SDS011;2377;51.734;8.950;2023-05-02T02:48:07;29.93;;;22.10;;
4726;SDS011;2377;51.734;8.950;2023-05-02T02:50:48;27.80;;;21.03;;
4726;SDS011;2377;51.734;8.950;2023-05-02T02:53:32;27.73;;;20.73;;
4726;SDS011;2377;51.734;8.950;2023-05-02T02:56:12;31.77;;;21.03;;
4726;SDS011;2377;51.734;8.950;2023-05-02T02:58:45;31.30;;;22.20;;
4726;SDS011;2377;51.734;8.950;2023-05-02T03:01:21;28.33;;;20.43;;
4726;SDS011;2377;51.734;8.950;2023-05-02T03:03:52;34.00;;;23.17;;
4726;SDS011;2377;51.734;8.950;2023-05-02T03:06:22;29.93;;;20.33;;
4726;SDS011;2377;51.734;8.950;2023-05-02T03:08:51;45.03;;;29.20;;
4726;SDS011;2377;51.734;8.950;2023-05-02T03:11:18;33.63;;;23.77;;
4726;SDS011;2377;51.734;8.950;2023-05-02T03:13:45;35.20;;;24.77;;
4726;SDS011;2377;51.734;8.950;2023-05-02T03:19:01;43.77;;;26.80;;
4726;SDS011;2377;51.734;8.950;2023-05-02T03:21:29;38.77;;;27.10;;
4726;SDS011;2377;51.734;8.950;2023-05-02T03:23:57;41.50;;;28.07;;
4726;SDS011;2377;51.734;8.950;2023-05-02T03:26:25;40.47;;;28.27;;
4726;SDS011;2377;51.734;8.950;2023-05-02T03:28:52;42.57;;;26.83;;
4726;SDS011;2377;51.734;8.950;2023-05-02T03:31:19;38.40;;;24.53;;
4726;SDS011;2377;51.734;8.950;2023-05-02T03:33:47;38.97;;;27.90;;
4726;SDS011;2377;51.734;8.950;2023-05-02T03:36:15;40.10;;;28.57;;
4726;SDS011;2377;51.734;8.950;2023-05-02T03:38:42;43.60;;;29.00;;
4726;SDS011;2377;51.734;8.950;2023-05-02T03:41:09;39.27;;;27.43;;
4726;SDS011;2377;51.734;8.950;2023-05-02T03:43:36;36.97;;;26.20;;
4726;SDS011;2377;51.734;8.950;2023-05-02T03:46:03;42.33;;;28.37;;
4726;SDS011;2377;51.734;8.950;2023-05-02T03:48:33;45.10;;;29.17;;
4726;SDS011;2377;51.734;8.950;2023-05-02T03:51:02;44.70;;;29.40;;
4726;SDS011;2377;51.734;8.950;2023-05-02T03:53:31;42.13;;;26.73;;
4726;SDS011;2377;51.734;8.950;2023-05-02T03:55:58;38.97;;;24.87;;
4726;SDS011;2377;51.734;8.950;2023-05-02T03:58:25;38.30;;;25.83;;
4726;SDS011;2377;51.734;8.950;2023-05-02T04:00:52;36.90;;;23.70;;
4726;SDS011;2377;51.734;8.950;2023-05-02T04:03:20;42.07;;;26.60;;
4726;SDS011;2377;51.734;8.950;2023-05-02T04:05:47;40.70;;;24.73;;
4726;SDS011;2377;51.734;8.950;2023-05-02T04:08:16;41.17;;;27.10;;
4726;SDS011;2377;51.734;8.950;2023-05-02T04:10:43;49.00;;;29.47;;
4726;SDS011;2377;51.734;8.950;2023-05-02T04:13:11;38.37;;;24.27;;
4726;SDS011;2377;51.734;8.950;2023-05-02T04:15:38;39.30;;;25.80;;
4726;SDS011;2377;51.734;8.950;2023-05-02T04:18:04;45.53;;;26.70;;
4726;SDS011;2377;51.734;8.950;2023-05-02T04:20:31;39.60;;;24.00;;
4726;SDS011;2377;51.734;8.950;2023-05-02T04:22:58;41.20;;;24.20;;
4726;SDS011;2377;51.734;8.950;2023-05-02T04:25:27;47.27;;;26.90;;
4726;SDS011;2377;51.734;8.950;2023-05-02T04:27:54;35.90;;;21.70;;
4726;SDS011;2377;51.734;8.950;2023-05-02T04:30:21;37.37;;;22.70;;
4726;SDS011;2377;51.734;8.950;2023-05-02T04:32:48;36.23;;;22.40;;
4726;SDS011;2377;51.734;8.950;2023-05-02T04:35:16;40.63;;;24.17;;
4726;SDS011;2377;51.734;8.950;2023-05-02T04:37:43;39.20;;;22.47;;
4726;SDS011;2377;51.734;8.950;2023-05-02T04:40:10;43.47;;;22.03;;
4726;SDS011;2377;51.734;8.950;2023-05-02T04:42:40;42.00;;;24.20;;
4726;SDS011;2377;51.734;8.950;2023-05-02T04:45:07;38.13;;;24.23;;
4726;SDS011;2377;51.734;8.950;2023-05-02T04:47:34;39.13;;;24.17;;
4726;SDS011;2377;51.734;8.950;2023-05-02T04:50:01;38.00;;;21.40;;
4726;SDS011;2377;51.734;8.950;2023-05-02T04:52:28;32.63;;;20.83;;
4726;SDS011;2377;51.734;8.950;2023-05-02T04:54:56;33.50;;;19.77;;
4726;SDS011;2377;51.734;8.950;2023-05-02T04:57:23;39.63;;;22.83;;
4726;SDS011;2377;51.734;8.950;2023-05-02T04:59:51;38.50;;;20.90;;
4726;SDS011;2377;51.734;8.950;2023-05-02T05:02:18;40.83;;;22.80;;
4726;SDS011;2377;51.734;8.950;2023-05-02T05:04:45;34.67;;;20.03;;
4726;SDS011;2377;51.734;8.950;2023-05-02T05:07:12;36.10;;;21.77;;
4726;SDS011;2377;51.734;8.950;2023-05-02T05:09:39;37.23;;;20.93;;
4726;SDS011;2377;51.734;8.950;2023-05-02T05:12:05;33.93;;;21.37;;
4726;SDS011;2377;51.734;8.950;2023-05-02T05:14:32;47.23;;;24.80;;
4726;SDS011;2377;51.734;8.950;2023-05-02T05:17:01;39.90;;;22.90;;
4726;SDS011;2377;51.734;8.950;2023-05-02T05:19:28;37.97;;;20.70;;
4726;SDS011;2377;51.734;8.950;2023-05-02T05:21:54;34.40;;;20.90;;
4726;SDS011;2377;51.734;8.950;2023-05-02T05:24:21;37.00;;;20.67;;
4726;SDS011;2377;51.734;8.950;2023-05-02T05:26:48;34.57;;;20.70;;
4726;SDS011;2377;51.734;8.950;2023-05-02T05:29:15;32.50;;;16.97;;
4726;SDS011;2377;51.734;8.950;2023-05-02T05:31:43;32.20;;;18.70;;
4726;SDS011;2377;51.734;8.950;2023-05-02T05:34:12;29.03;;;18.63;;
4726;SDS011;2377;51.734;8.950;2023-05-02T05:36:39;31.50;;;17.87;;
4726;SDS011;2377;51.734;8.950;2023-05-02T05:39:06;32.60;;;17.93;;
4726;SDS011;2377;51.734;8.950;2023-05-02T05:41:34;35.10;;;19.93;;
4726;SDS011;2377;51.734;8.950;2023-05-02T05:44:02;39.00;;;22.07;;
4726;SDS011;2377;51.734;8.950;2023-05-02T05:46:29;27.63;;;17.77;;
4726;SDS011;2377;51.734;8.950;2023-05-02T05:48:56;28.93;;;18.50;;
4726;SDS011;2377;51.734;8.950;2023-05-02T05:51:24;29.40;;;18.20;;
4726;SDS011;2377;51.734;8.950;2023-05-02T05:53:52;34.07;;;18.90;;
4726;SDS011;2377;51.734;8.950;2023-05-02T05:56:19;32.77;;;19.30;;
4726;SDS011;2377;51.734;8.950;2023-05-02T05:58:47;30.60;;;17.57;;
4726;SDS011;2377;51.734;8.950;2023-05-02T06:01:14;32.60;;;20.00;;
4726;SDS011;2377;51.734;8.950;2023-05-02T06:03:40;35.30;;;20.40;;
4726;SDS011;2377;51.734;8.950;2023-05-02T06:06:07;23.63;;;14.27;;
4726;SDS011;2377;51.734;8.950;2023-05-02T06:08:36;19.00;;;12.23;;
4726;SDS011;2377;51.734;8.950;2023-05-02T06:11:03;18.90;;;11.60;;
4726;SDS011;2377;51.734;8.950;2023-05-02T06:13:34;22.13;;;14.43;;
4726;SDS011;2377;51.734;8.950;2023-05-02T06:16:01;24.63;;;15.30;;
4726;SDS011;2377;51.734;8.950;2023-05-02T06:18:29;30.60;;;16.93;;
4726;SDS011;2377;51.734;8.950;2023-05-02T06:20:56;27.60;;;16.53;;
4726;SDS011;2377;51.734;8.950;2023-05-02T06:23:23;34.57;;;16.53;;
4726;SDS011;2377;51.734;8.950;2023-05-02T06:25:51;23.70;;;15.13;;
4726;SDS011;2377;51.734;8.950;2023-05-02T06:28:19;26.07;;;17.03;;
4726;SDS011;2377;51.734;8.950;2023-05-02T06:30:46;33.07;;;18.70;;
4726;SDS011;2377;51.734;8.950;2023-05-02T06:33:22;27.10;;;16.93;;
4726;SDS011;2377;51.734;8.950;2023-05-02T06:35:49;25.17;;;16.70;;
4726;SDS011;2377;51.734;8.950;2023-05-02T06:38:17;28.27;;;17.83;;
4726;SDS011;2377;51.734;8.950;2023-05-02T06:40:44;21.20;;;13.50;;
4726;SDS011;2377;51.734;8.950;2023-05-02T06:43:12;24.30;;;15.43;;
4726;SDS011;2377;51.734;8.950;2023-05-02T06:45:40;25.90;;;15.33;;
4726;SDS011;2377;51.734;8.950;2023-05-02T06:48:07;19.47;;;12.40;;
4726;SDS011;2377;51.734;8.950;2023-05-02T06:50:34;21.70;;;12.17;;
4726;SDS011;2377;51.734;8.950;2023-05-02T06:53:02;15.73;;;9.80;;
4726;SDS011;2377;51.734;8.950;2023-05-02T06:55:30;15.47;;;9.40;;
4726;SDS011;2377;51.734;8.950;2023-05-02T06:57:57;13.00;;;7.33;;
4726;SDS011;2377;51.734;8.950;2023-05-02T07:00:26;10.37;;;5.83;;
4726;SDS011;2377;51.734;8.950;2023-05-02T07:02:53;9.57;;;5.80;;
4726;SDS011;2377;51.734;8.950;2023-05-02T07:05:20;7.50;;;4.43;;
4726;SDS011;2377;51.734;8.950;2023-05-02T07:07:47;6.57;;;4.70;;
4726;SDS011;2377;51.734;8.950;2023-05-02T07:10:14;4.40;;;2.70;;
4726;SDS011;2377;51.734;8.950;2023-05-02T07:12:40;2.83;;;1.60;;
4726;SDS011;2377;51.734;8.950;2023-05-02T07:15:07;3.07;;;1.90;;
4726;SDS011;2377;51.734;8.950;2023-05-02T07:17:36;2.67;;;1.83;;
4726;SDS011;2377;51.734;8.950;2023-05-02T07:20:03;4.03;;;2.00;;
4726;SDS011;2377;51.734;8.950;2023-05-02T07:22:32;5.60;;;2.60;;
4726;SDS011;2377;51.734;8.950;2023-05-02T07:24:59;6.70;;;2.20;;
4726;SDS011;2377;51.734;8.950;2023-05-02T07:27:28;3.23;;;1.97;;
4726;SDS011;2377;51.734;8.950;2023-05-02T07:29:55;3.83;;;2.17;;
4726;SDS011;2377;51.734;8.950;2023-05-02T07:32:22;3.50;;;2.03;;
4726;SDS011;2377;51.734;8.950;2023-05-02T07:34:51;4.00;;;2.60;;
4726;SDS011;2377;51.734;8.950;2023-05-02T07:37:20;3.83;;;2.77;;
4726;SDS011;2377;51.734;8.950;2023-05-02T07:39:47;4.50;;;2.67;;
4726;SDS011;2377;51.734;8.950;2023-05-02T07:42:14;7.60;;;3.03;;
4726;SDS011;2377;51.734;8.950;2023-05-02T07:44:41;3.77;;;3.03;;
4726;SDS011;2377;51.734;8.950;2023-05-02T07:47:08;5.93;;;3.13;;
4726;SDS011;2377;51.734;8.950;2023-05-02T07:49:35;4.83;;;2.77;;
4726;SDS011;2377;51.734;8.950;2023-05-02T07:52:04;6.07;;;3.10;;
4726;SDS011;2377;51.734;8.950;2023-05-02T07:54:30;7.50;;;4.23;;
4726;SDS011;2377;51.734;8.950;2023-05-02T07:56:57;7.47;;;4.07;;
4726;SDS011;2377;51.734;8.950;2023-05-02T07:59:27;10.23;;;4.17;;
4726;SDS011;2377;51.734;8.950;2023-05-02T08:01:55;11.50;;;3.80;;
4726;SDS011;2377;51.734;8.950;2023-05-02T08:04:22;8.77;;;4.47;;
4726;SDS011;2377;51.734;8.950;2023-05-02T08:06:49;7.70;;;4.33;;
4726;SDS011;2377;51.734;8.950;2023-05-02T08:09:17;11.47;;;4.30;;
4726;SDS011;2377;51.734;8.950;2023-05-02T08:11:44;7.27;;;3.90;;
4726;SDS011;2377;51.734;8.950;2023-05-02T08:14:11;12.57;;;4.70;;
4726;SDS011;2377;51.734;8.950;2023-05-02T08:16:38;12.23;;;4.70;;
4726;SDS011;2377;51.734;8.950;2023-05-02T08:19:05;10.60;;;4.60;;
4726;SDS011;2377;51.734;8.950;2023-05-02T08:21:32;13.33;;;5.80;;
4726;SDS011;2377;51.734;8.950;2023-05-02T08:24:00;8.87;;;5.07;;
4726;SDS011;2377;51.734;8.950;2023-05-02T08:26:28;11.10;;;5.00;;
4726;SDS011;2377;51.734;8.950;2023-05-02T08:28:55;8.30;;;4.33;;
4726;SDS011;2377;51.734;8.950;2023-05-02T08:31:22;10.47;;;5.00;;
4726;SDS011;2377;51.734;8.950;2023-05-02T08:33:49;8.37;;;4.80;;
4726;SDS011;2377;51.734;8.950;2023-05-02T08:36:16;14.07;;;5.03;;
4726;SDS011;2377;51.734;8.950;2023-05-02T08:38:44;9.80;;;5.17;;
4726;SDS011;2377;51.734;8.950;2023-05-02T08:41:12;10.63;;;4.73;;
4726;SDS011;2377;51.734;8.950;2023-05-02T08:43:43;10.17;;;5.23;;
4726;SDS011;2377;51.734;8.950;2023-05-02T08:46:11;9.80;;;4.80;;
4726;SDS011;2377;51.734;8.950;2023-05-02T08:48:40;13.90;;;5.50;;
4726;SDS011;2377;51.734;8.950;2023-05-02T08:51:09;19.13;;;6.00;;
4726;SDS011;2377;51.734;8.950;2023-05-02T08:53:37;11.57;;;5.73;;
4726;SDS011;2377;51.734;8.950;2023-05-02T08:56:06;12.50;;;5.40;;
4726;SDS011;2377;51.734;8.950;2023-05-02T08:58:35;12.20;;;6.00;;
4726;SDS011;2377;51.734;8.950;2023-05-02T09:01:07;19.93;;;6.90;;
4726;SDS011;2377;51.734;8.950;2023-05-02T09:03:38;13.50;;;6.50;;
4726;SDS011;2377;51.734;8.950;2023-05-02T09:06:08;13.77;;;6.10;;
4726;SDS011;2377;51.734;8.950;2023-05-02T09:08:38;19.53;;;7.70;;
4726;SDS011;2377;51.734;8.950;2023-05-02T09:11:07;19.60;;;7.63;;
4726;SDS011;2377;51.734;8.950;2023-05-02T09:13:36;20.87;;;6.50;;
4726;SDS011;2377;51.734;8.950;2023-05-02T09:16:06;14.03;;;6.60;;
4726;SDS011;2377;51.734;8.950;2023-05-02T09:18:36;16.43;;;5.50;;
4726;SDS011;2377;51.734;8.950;2023-05-02T09:21:06;12.80;;;6.00;;
4726;SDS011;2377;51.734;8.950;2023-05-02T09:23:35;12.17;;;5.90;;
4726;SDS011;2377;51.734;8.950;2023-05-02T09:26:16;20.07;;;7.00;;
4726;SDS011;2377;51.734;8.950;2023-05-02T09:28:46;15.07;;;6.40;;
4726;SDS011;2377;51.734;8.950;2023-05-02T09:31:16;14.53;;;5.57;;
4726;SDS011;2377;51.734;8.950;2023-05-02T09:33:45;16.77;;;5.87;;
4726;SDS011;2377;51.734;8.950;2023-05-02T09:36:14;15.70;;;5.93;;
4726;SDS011;2377;51.734;8.950;2023-05-02T09:38:42;17.43;;;6.83;;
4726;SDS011;2377;51.734;8.950;2023-05-02T09:41:11;15.47;;;6.73;;
4726;SDS011;2377;51.734;8.950;2023-05-02T09:43:39;15.87;;;5.60;;
4726;SDS011;2377;51.734;8.950;2023-05-02T09:46:08;20.57;;;7.30;;
4726;SDS011;2377;51.734;8.950;2023-05-02T09:51:21;15.47;;;6.60;;
4726;SDS011;2377;51.734;8.950;2023-05-02T09:53:50;17.73;;;6.67;;
4726;SDS011;2377;51.734;8.950;2023-05-02T09:56:17;18.83;;;7.17;;
4726;SDS011;2377;51.734;8.950;2023-05-02T09:58:45;11.97;;;6.47;;
4726;SDS011;2377;51.734;8.950;2023-05-02T10:01:15;15.03;;;7.30;;
4726;SDS011;2377;51.734;8.950;2023-05-02T10:03:45;17.93;;;7.63;;
4726;SDS011;2377;51.734;8.950;2023-05-02T10:06:15;16.10;;;7.00;;
4726;SDS011;2377;51.734;8.950;2023-05-02T10:08:45;16.40;;;6.90;;
4726;SDS011;2377;51.734;8.950;2023-05-02T10:11:14;21.23;;;7.13;;
4726;SDS011;2377;51.734;8.950;2023-05-02T10:13:41;13.00;;;6.50;;
4726;SDS011;2377;51.734;8.950;2023-05-02T10:16:10;16.20;;;6.97;;
4726;SDS011;2377;51.734;8.950;2023-05-02T10:18:40;21.00;;;7.20;;
4726;SDS011;2377;51.734;8.950;2023-05-02T10:21:15;16.57;;;7.10;;
4726;SDS011;2377;51.734;8.950;2023-05-02T10:23:51;17.30;;;6.53;;
4726;SDS011;2377;51.734;8.950;2023-05-02T10:26:19;22.03;;;7.33;;
4726;SDS011;2377;51.734;8.950;2023-05-02T10:28:49;12.83;;;5.70;;
4726;SDS011;2377;51.734;8.950;2023-05-02T10:31:16;14.77;;;7.17;;
4726;SDS011;2377;51.734;8.950;2023-05-02T10:33:44;12.77;;;7.17;;
4726;SDS011;2377;51.734;8.950;2023-05-02T10:36:19;22.13;;;7.53;;
4726;SDS011;2377;51.734;8.950;2023-05-02T10:38:47;15.00;;;8.30;;
4726;SDS011;2377;51.734;8.950;2023-05-02T10:41:18;22.73;;;8.63;;
4726;SDS011;2377;51.734;8.950;2023-05-02T10:43:50;25.73;;;8.20;;
4726;SDS011;2377;51.734;8.950;2023-05-02T10:46:28;16.10;;;7.70;;
4726;SDS011;2377;51.734;8.950;2023-05-02T10:49:00;19.13;;;8.10;;
4726;SDS011;2377;51.734;8.950;2023-05-02T10:51:31;15.53;;;7.63;;
4726;SDS011;2377;51.734;8.950;2023-05-02T10:54:17;17.77;;;7.63;;
4726;SDS011;2377;51.734;8.950;2023-05-02T10:57:01;18.57;;;8.30;;
4726;SDS011;2377;51.734;8.950;2023-05-02T10:59:33;14.27;;;6.57;;
4726;SDS011;2377;51.734;8.950;2023-05-02T11:02:02;16.40;;;7.10;;
4726;SDS011;2377;51.734;8.950;2023-05-02T11:07:29;20.93;;;7.17;;
4726;SDS011;2377;51.734;8.950;2023-05-02T11:12:51;15.10;;;6.83;;
4726;SDS011;2377;51.734;8.950;2023-05-02T11:18:23;13.13;;;6.43;;
4726;SDS011;2377;51.734;8.950;2023-05-02T11:20:50;15.07;;;6.37;;
4726;SDS011;2377;51.734;8.950;2023-05-02T11:23:22;10.37;;;6.03;;
4726;SDS011;2377;51.734;8.950;2023-05-02T11:25:53;14.97;;;6.60;;
4726;SDS011;2377;51.734;8.950;2023-05-02T11:28:41;11.23;;;5.60;;
4726;SDS011;2377;51.734;8.950;2023-05-02T11:34:27;12.23;;;4.97;;
4726;SDS011;2377;51.734;8.950;2023-05-02T11:37:12;12.90;;;4.20;;
4726;SDS011;2377;51.734;8.950;2023-05-02T11:39:41;10.53;;;4.43;;
4726;SDS011;2377;51.734;8.950;2023-05-02T11:42:10;10.67;;;4.60;;
4726;SDS011;2377;51.734;8.950;2023-05-02T11:44:54;9.30;;;4.50;;
4726;SDS011;2377;51.734;8.950;2023-05-02T11:47:21;10.67;;;4.70;;
4726;SDS011;2377;51.734;8.950;2023-05-02T11:49:50;17.00;;;5.00;;
4726;SDS011;2377;51.734;8.950;2023-05-02T11:52:17;13.80;;;5.20;;
4726;SDS011;2377;51.734;8.950;2023-05-02T11:54:45;14.90;;;4.50;;
4726;SDS011;2377;51.734;8.950;2023-05-02T11:57:12;10.53;;;4.57;;
4726;SDS011;2377;51.734;8.950;2023-05-02T11:59:47;12.60;;;4.30;;
4726;SDS011;2377;51.734;8.950;2023-05-02T12:02:15;10.07;;;4.03;;
4726;SDS011;2377;51.734;8.950;2023-05-02T12:04:42;16.57;;;4.47;;
4726;SDS011;2377;51.734;8.950;2023-05-02T12:07:10;10.57;;;4.80;;
4726;SDS011;2377;51.734;8.950;2023-05-02T12:09:50;6.93;;;4.07;;
4726;SDS011;2377;51.734;8.950;2023-05-02T12:12:18;11.73;;;4.60;;
4726;SDS011;2377;51.734;8.950;2023-05-02T12:14:46;15.73;;;4.90;;
4726;SDS011;2377;51.734;8.950;2023-05-02T12:17:13;13.47;;;4.37;;
4726;SDS011;2377;51.734;8.950;2023-05-02T12:19:40;13.27;;;4.57;;
4726;SDS011;2377;51.734;8.950;2023-05-02T12:22:08;10.27;;;4.37;;
4726;SDS011;2377;51.734;8.950;2023-05-02T12:24:37;20.53;;;5.20;;
4726;SDS011;2377;51.734;8.950;2023-05-02T12:27:10;9.70;;;4.63;;
4726;SDS011;2377;51.734;8.950;2023-05-02T12:29:38;10.33;;;4.50;;
4726;SDS011;2377;51.734;8.950;2023-05-02T12:32:06;10.70;;;4.57;;
4726;SDS011;2377;51.734;8.950;2023-05-02T12:34:34;13.43;;;5.10;;
4726;SDS011;2377;51.734;8.950;2023-05-02T12:37:08;18.27;;;5.57;;
4726;SDS011;2377;51.734;8.950;2023-05-02T12:40:01;10.70;;;4.70;;
4726;SDS011;2377;51.734;8.950;2023-05-02T12:42:30;11.43;;;4.87;;
4726;SDS011;2377;51.734;8.950;2023-05-02T12:44:58;11.97;;;4.70;;
4726;SDS011;2377;51.734;8.950;2023-05-02T12:47:27;11.10;;;4.80;;
4726;SDS011;2377;51.734;8.950;2023-05-02T12:49:55;16.20;;;5.10;;
4726;SDS011;2377;51.734;8.950;2023-05-02T12:55:15;18.23;;;5.50;;
4726;SDS011;2377;51.734;8.950;2023-05-02T12:57:44;18.33;;;5.10;;
4726;SDS011;2377;51.734;8.950;2023-05-02T13:00:12;11.43;;;5.13;;
4726;SDS011;2377;51.734;8.950;2023-05-02T13:02:42;15.23;;;5.03;;
4726;SDS011;2377;51.734;8.950;2023-05-02T13:05:15;15.83;;;4.80;;
4726;SDS011;2377;51.734;8.950;2023-05-02T13:07:43;17.60;;;6.50;;
4726;SDS011;2377;51.734;8.950;2023-05-02T13:10:10;13.97;;;4.53;;
4726;SDS011;2377;51.734;8.950;2023-05-02T13:12:41;11.07;;;4.80;;
4726;SDS011;2377;51.734;8.950;2023-05-02T13:15:10;16.93;;;5.23;;
4726;SDS011;2377;51.734;8.950;2023-05-02T13:17:38;12.70;;;5.13;;
4726;SDS011;2377;51.734;8.950;2023-05-02T13:20:06;9.30;;;5.00;;
4726;SDS011;2377;51.734;8.950;2023-05-02T13:22:34;12.60;;;5.50;;
4726;SDS011;2377;51.734;8.950;2023-05-02T13:25:02;13.73;;;5.40;;
4726;SDS011;2377;51.734;8.950;2023-05-02T13:27:30;16.40;;;5.90;;
4726;SDS011;2377;51.734;8.950;2023-05-02T13:29:58;14.43;;;6.00;;
4726;SDS011;2377;51.734;8.950;2023-05-02T13:32:27;12.10;;;5.80;;
4726;SDS011;2377;51.734;8.950;2023-05-02T13:34:54;11.93;;;5.30;;
4726;SDS011;2377;51.734;8.950;2023-05-02T13:37:21;14.83;;;5.57;;
4726;SDS011;2377;51.734;8.950;2023-05-02T13:39:48;11.00;;;5.40;;
4726;SDS011;2377;51.734;8.950;2023-05-02T13:42:15;13.00;;;5.03;;
4726;SDS011;2377;51.734;8.950;2023-05-02T13:44:42;13.53;;;5.60;;
4726;SDS011;2377;51.734;8.950;2023-05-02T13:47:09;17.77;;;5.70;;
4726;SDS011;2377;51.734;8.950;2023-05-02T13:49:37;10.80;;;5.40;;
4726;SDS011;2377;51.734;8.950;2023-05-02T13:52:04;11.73;;;5.80;;
4726;SDS011;2377;51.734;8.950;2023-05-02T13:54:31;13.17;;;5.27;;
4726;SDS011;2377;51.734;8.950;2023-05-02T13:56:58;13.00;;;4.93;;
4726;SDS011;2377;51.734;8.950;2023-05-02T13:59:25;9.57;;;4.40;;
4726;SDS011;2377;51.734;8.950;2023-05-02T14:01:51;14.90;;;5.77;;
4726;SDS011;2377;51.734;8.950;2023-05-02T14:04:18;13.23;;;5.00;;
4726;SDS011;2377;51.734;8.950;2023-05-02T14:06:46;14.47;;;5.33;;
4726;SDS011;2377;51.734;8.950;2023-05-02T14:09:13;16.47;;;4.70;;
4726;SDS011;2377;51.734;8.950;2023-05-02T14:11:41;15.93;;;4.77;;
4726;SDS011;2377;51.734;8.950;2023-05-02T14:14:11;11.50;;;4.43;;
4726;SDS011;2377;51.734;8.950;2023-05-02T14:16:38;11.40;;;5.83;;
4726;SDS011;2377;51.734;8.950;2023-05-02T14:19:05;14.23;;;6.10;;
4726;SDS011;2377;51.734;8.950;2023-05-02T14:21:32;10.90;;;5.27;;
4726;SDS011;2377;51.734;8.950;2023-05-02T14:24:00;8.17;;;4.33;;
4726;SDS011;2377;51.734;8.950;2023-05-02T14:26:27;20.40;;;5.30;;
4726;SDS011;2377;51.734;8.950;2023-05-02T14:28:54;8.73;;;4.70;;
4726;SDS011;2377;51.734;8.950;2023-05-02T14:31:21;10.90;;;4.97;;
4726;SDS011;2377;51.734;8.950;2023-05-02T14:33:48;11.53;;;4.90;;
4726;SDS011;2377;51.734;8.950;2023-05-02T14:36:15;11.53;;;4.63;;
4726;SDS011;2377;51.734;8.950;2023-05-02T14:38:41;13.50;;;5.87;;
4726;SDS011;2377;51.734;8.950;2023-05-02T14:41:10;10.33;;;4.90;;
4726;SDS011;2377;51.734;8.950;2023-05-02T14:43:36;8.17;;;4.33;;
4726;SDS011;2377;51.734;8.950;2023-05-02T14:46:04;7.17;;;4.50;;
4726;SDS011;2377;51.734;8.950;2023-05-02T14:48:31;9.10;;;4.80;;
4726;SDS011;2377;51.734;8.950;2023-05-02T14:50:58;9.90;;;5.20;;
4726;SDS011;2377;51.734;8.950;2023-05-02T14:53:29;11.50;;;5.10;;
4726;SDS011;2377;51.734;8.950;2023-05-02T14:55:56;11.90;;;4.63;;
4726;SDS011;2377;51.734;8.950;2023-05-02T14:58:24;12.07;;;4.77;;
4726;SDS011;2377;51.734;8.950;2023-05-02T15:00:51;9.20;;;4.90;;
4726;SDS011;2377;51.734;8.950;2023-05-02T15:03:18;9.80;;;4.13;;
4726;SDS011;2377;51.734;8.950;2023-05-02T15:05:45;7.93;;;4.00;;
4726;SDS011;2377;51.734;8.950;2023-05-02T15:08:12;9.20;;;4.67;;
4726;SDS011;2377;51.734;8.950;2023-05-02T15:10:39;9.30;;;4.27;;
4726;SDS011;2377;51.734;8.950;2023-05-02T15:13:06;7.50;;;4.20;;
4726;SDS011;2377;51.734;8.950;2023-05-02T15:15:34;7.33;;;3.80;;
4726;SDS011;2377;51.734;8.950;2023-05-02T15:18:01;10.60;;;4.80;;
4726;SDS011;2377;51.734;8.950;2023-05-02T15:20:29;9.20;;;4.37;;
4726;SDS011;2377;51.734;8.950;2023-05-02T15:22:56;9.83;;;4.20;;
4726;SDS011;2377;51.734;8.950;2023-05-02T15:25:27;11.53;;;4.80;;
4726;SDS011;2377;51.734;8.950;2023-05-02T15:27:55;11.27;;;4.73;;
4726;SDS011;2377;51.734;8.950;2023-05-02T15:30:21;6.23;;;3.97;;